createdAt,value
2022-09-17T00:01:23.637Z,9.20
2022-09-17T00:03:56.306Z,10.98
2022-09-17T00:06:24.805Z,6.55
2022-09-17T00:08:52.487Z,9.73
2022-09-17T00:11:24.639Z,7.63
2022-09-17T00:16:26.717Z,9.32
2022-09-17T00:18:54.168Z,9.20
2022-09-17T00:21:21.865Z,11.88
2022-09-17T00:23:49.078Z,9.98
2022-09-17T00:26:16.180Z,7.75
2022-09-17T00:28:45.480Z,6.38
2022-09-17T00:31:12.542Z,14.18
2022-09-17T00:33:39.475Z,7.07
2022-09-17T00:36:07.165Z,9.52
2022-09-17T00:38:34.858Z,6.85
2022-09-17T00:41:02.297Z,7.32
2022-09-17T00:43:43.386Z,10.43
2022-09-17T00:46:29.020Z,12.82
2022-09-17T00:48:59.910Z,7.90
2022-09-17T00:51:34.753Z,15.68
2022-09-17T00:54:04.252Z,10.85
2022-09-17T00:56:35.137Z,9.02
2022-09-17T00:59:03.599Z,11.57
2022-09-17T01:01:31.777Z,8.68
2022-09-17T01:03:58.836Z,10.70
2022-09-17T01:07:17.774Z,10.63
2022-09-17T01:09:57.088Z,12.40
2022-09-17T01:12:54.576Z,12.45
2022-09-17T01:15:47.824Z,13.73
2022-09-17T01:18:25.066Z,8.13
2022-09-17T01:21:13.423Z,10.93
2022-09-17T01:23:59.065Z,9.15
2022-09-17T01:27:03.773Z,8.70
2022-09-17T01:29:55.688Z,10.32
2022-09-17T01:32:43.033Z,15.02
2022-09-17T01:35:19.601Z,12.18
2022-09-17T01:38:13.972Z,12.30
2022-09-17T01:41:08.785Z,8.35
2022-09-17T01:44:00.891Z,13.05
2022-09-17T01:46:49.877Z,19.88
2022-09-17T01:49:17.555Z,10.98
2022-09-17T01:51:48.584Z,12.18
2022-09-17T01:54:49.330Z,8.82
2022-09-17T01:57:38.100Z,15.52
2022-09-17T02:00:17.421Z,10.75
2022-09-17T02:03:14.954Z,13.15
2022-09-17T02:05:54.565Z,9.27
2022-09-17T02:08:31.703Z,9.35
2022-09-17T02:11:06.616Z,10.93
2022-09-17T02:13:47.480Z,15.45
2022-09-17T02:16:24.932Z,16.70
2022-09-17T02:19:08.716Z,15.98
2022-09-17T02:21:35.492Z,11.27
2022-09-17T02:24:31.423Z,10.65
2022-09-17T02:27:07.848Z,11.23
2022-09-17T02:29:37.536Z,9.30
2022-09-17T02:32:05.142Z,15.02
2022-09-17T02:34:32.653Z,15.27
2022-09-17T02:36:59.710Z,10.27
2022-09-17T02:39:28.331Z,17.75
2022-09-17T02:41:55.699Z,12.75
2022-09-17T02:44:37.699Z,14.40
2022-09-17T02:47:31.983Z,18.67
2022-09-17T02:50:20.159Z,11.48
2022-09-17T02:53:08.106Z,13.15
2022-09-17T02:56:04.170Z,14.25
2022-09-17T02:59:13.417Z,12.13
2022-09-17T03:01:47.927Z,16.70
2022-09-17T03:04:18.087Z,12.77
2022-09-17T03:06:48.802Z,17.85
2022-09-17T03:09:15.840Z,11.73
2022-09-17T03:11:42.907Z,14.88
2022-09-17T03:14:09.961Z,16.08
2022-09-17T03:16:36.918Z,12.48
2022-09-17T03:19:03.856Z,11.30
2022-09-17T03:21:31.356Z,14.65
2022-09-17T03:24:00.349Z,12.20
2022-09-17T03:26:27.710Z,14.73
2022-09-17T03:28:54.540Z,10.80
2022-09-17T03:31:21.503Z,17.30
2022-09-17T03:33:50.233Z,15.90
2022-09-17T03:36:17.190Z,16.80
2022-09-17T03:38:44.087Z,17.40
2022-09-17T03:41:11.470Z,12.75
2022-09-17T03:43:39.866Z,21.08
2022-09-17T03:46:06.803Z,10.68
2022-09-17T03:48:37.108Z,16.15
2022-09-17T03:51:04.460Z,22.23
2022-09-17T03:53:32.072Z,19.25
2022-09-17T03:56:03.213Z,12.27
2022-09-17T03:58:31.163Z,18.75
2022-09-17T04:00:58.304Z,15.98
2022-09-17T04:03:27.689Z,18.88
2022-09-17T04:05:55.393Z,11.30
2022-09-17T04:08:22.455Z,17.17
2022-09-17T04:10:49.453Z,19.50
2022-09-17T04:13:16.958Z,22.75
2022-09-17T04:15:44.551Z,18.50
2022-09-17T04:18:11.471Z,15.98
2022-09-17T04:20:38.824Z,37.75
2022-09-17T04:23:07.334Z,21.75
2022-09-17T04:25:34.367Z,24.60
2022-09-17T04:28:01.275Z,16.58
2022-09-17T04:30:28.220Z,17.27
2022-09-17T04:32:55.041Z,31.90
2022-09-17T04:35:22.153Z,16.77
2022-09-17T04:37:58.561Z,18.88
2022-09-17T04:40:26.969Z,19.05
2022-09-17T04:43:03.221Z,24.25
2022-09-17T04:45:33.492Z,14.73
2022-09-17T04:48:01.852Z,19.05
2022-09-17T04:50:29.025Z,16.15
2022-09-17T04:52:55.877Z,16.65
2022-09-17T04:55:22.707Z,24.70
2022-09-17T04:57:51.816Z,21.23
2022-09-17T05:00:20.536Z,16.88
2022-09-17T05:02:49.695Z,16.35
2022-09-17T05:05:17.809Z,24.60
2022-09-17T05:07:45.312Z,16.70
2022-09-17T05:10:14.242Z,17.15
2022-09-17T05:12:41.042Z,24.42
2022-09-17T05:15:08.323Z,21.55
2022-09-17T05:17:35.119Z,11.85
2022-09-17T05:20:02.083Z,16.08
2022-09-17T05:22:28.895Z,24.63
2022-09-17T05:24:55.673Z,14.70
2022-09-17T05:27:22.461Z,18.05
2022-09-17T05:29:49.324Z,16.92
2022-09-17T05:32:16.091Z,15.73
2022-09-17T05:34:42.867Z,24.48
2022-09-17T05:37:11.221Z,16.33
2022-09-17T05:39:38.155Z,17.83
2022-09-17T05:42:05.133Z,22.23
2022-09-17T05:44:32.008Z,21.15
2022-09-17T05:46:59.261Z,19.00
2022-09-17T05:49:26.154Z,20.52
2022-09-17T05:51:52.975Z,11.13
2022-09-17T05:54:19.812Z,15.73
2022-09-17T05:56:46.652Z,17.17
2022-09-17T05:59:14.753Z,17.15
2022-09-17T06:01:42.486Z,16.48
2022-09-17T06:04:09.767Z,13.00
2022-09-17T06:06:37.915Z,15.63
2022-09-17T06:09:06.441Z,12.43
2022-09-17T06:11:33.268Z,23.92
2022-09-17T06:14:00.518Z,15.73
2022-09-17T06:16:27.765Z,18.30
2022-09-17T06:18:54.975Z,15.60
2022-09-17T06:21:23.018Z,14.52
2022-09-17T06:23:52.841Z,17.95
2022-09-17T06:26:19.785Z,19.35
2022-09-17T06:28:46.641Z,11.63
2022-09-17T06:31:14.470Z,16.50
2022-09-17T06:33:41.559Z,16.33
2022-09-17T06:36:14.110Z,15.48
2022-09-17T06:38:42.271Z,19.48
2022-09-17T06:41:09.532Z,19.42
2022-09-17T06:43:36.360Z,11.18
2022-09-17T06:46:09.497Z,16.10
2022-09-17T06:48:37.450Z,15.15
2022-09-17T06:51:07.467Z,10.80
2022-09-17T06:53:36.723Z,18.65
2022-09-17T06:56:06.680Z,9.63
2022-09-17T06:58:37.627Z,15.65
2022-09-17T07:01:06.257Z,13.02
2022-09-17T07:03:34.209Z,13.65
2022-09-17T07:06:01.096Z,18.33
2022-09-17T07:08:28.120Z,17.40
2022-09-17T07:10:58.494Z,10.13
2022-09-17T07:13:26.150Z,10.43
2022-09-17T07:15:54.832Z,14.88
2022-09-17T07:18:23.354Z,10.27
2022-09-17T07:21:01.612Z,11.82
2022-09-17T07:23:31.534Z,10.27
2022-09-17T07:26:01.103Z,13.25
2022-09-17T07:28:28.862Z,13.13
2022-09-17T07:30:56.964Z,11.52
2022-09-17T07:33:26.710Z,15.93
2022-09-17T07:36:01.529Z,9.73
2022-09-17T07:38:29.910Z,16.25
2022-09-17T07:40:59.119Z,7.22
2022-09-17T07:43:30.655Z,5.85
2022-09-17T07:45:59.115Z,9.35
2022-09-17T07:48:26.670Z,13.45
2022-09-17T07:50:54.127Z,11.02
2022-09-17T07:53:22.529Z,11.60
2022-09-17T07:55:53.312Z,10.02
2022-09-17T07:58:24.559Z,13.40
2022-09-17T08:00:51.508Z,11.40
2022-09-17T08:03:18.556Z,10.20
2022-09-17T08:05:46.008Z,12.65
2022-09-17T08:08:13.676Z,13.55
2022-09-17T08:10:41.754Z,9.80
2022-09-17T08:13:08.765Z,13.55
2022-09-17T08:15:35.996Z,16.45
2022-09-17T08:18:02.877Z,6.05
2022-09-17T08:20:29.872Z,12.27
2022-09-17T08:23:01.124Z,14.00
2022-09-17T08:25:28.083Z,10.07
2022-09-17T08:27:56.663Z,7.93
2022-09-17T08:30:24.215Z,7.93
2022-09-17T08:32:51.107Z,17.55
2022-09-17T08:35:18.107Z,7.90
2022-09-17T08:37:45.203Z,11.90
2022-09-17T08:40:20.989Z,11.60
2022-09-17T08:43:00.340Z,8.52
2022-09-17T08:45:28.386Z,11.00
2022-09-17T08:48:02.953Z,11.35
2022-09-17T08:50:34.082Z,10.25
2022-09-17T08:53:28.797Z,10.75
2022-09-17T08:56:01.842Z,7.07
2022-09-17T08:58:59.428Z,10.88
2022-09-17T09:01:35.507Z,7.90
2022-09-17T09:04:24.761Z,7.05
2022-09-17T09:07:02.491Z,5.75
2022-09-17T09:09:36.081Z,8.00
2022-09-17T09:12:19.111Z,4.68
2022-09-17T09:14:54.261Z,4.68
2022-09-17T09:17:25.923Z,8.55
2022-09-17T09:19:54.052Z,8.60
2022-09-17T09:22:58.050Z,6.18
2022-09-17T09:25:27.261Z,5.95
2022-09-17T09:28:07.724Z,5.97
2022-09-17T09:31:06.892Z,8.73
2022-09-17T09:33:38.048Z,4.20
2022-09-17T09:36:12.885Z,6.22
2022-09-17T09:38:50.902Z,5.43
2022-09-17T09:41:31.714Z,7.18
2022-09-17T09:44:04.788Z,3.35
2022-09-17T09:47:20.267Z,3.97
2022-09-17T09:50:08.205Z,4.85
2022-09-17T09:52:47.370Z,3.53
2022-09-17T09:55:32.005Z,4.10
2022-09-17T09:58:16.817Z,4.85
2022-09-17T10:00:44.024Z,2.35
2022-09-17T10:03:21.336Z,3.55
2022-09-17T10:06:00.911Z,5.30
2022-09-17T10:08:29.853Z,3.28
2022-09-17T10:11:02.713Z,6.63
2022-09-17T10:13:32.773Z,7.93
2022-09-17T10:16:19.229Z,5.25
2022-09-17T10:18:51.450Z,3.58
2022-09-17T10:23:53.621Z,9.07
2022-09-17T10:26:36.097Z,5.73
2022-09-17T10:29:05.683Z,4.57
2022-09-17T10:31:53.907Z,2.72
2022-09-17T10:34:26.801Z,6.15
2022-09-17T10:36:56.216Z,2.72
2022-09-17T10:39:36.407Z,4.60
2022-09-17T10:42:22.109Z,4.63
2022-09-17T10:44:57.460Z,3.83
2022-09-17T10:47:34.792Z,2.72
2022-09-17T10:50:05.788Z,3.65
2022-09-17T10:52:38.655Z,9.52
2022-09-17T10:55:26.796Z,5.95
2022-09-17T10:58:08.724Z,4.47
2022-09-17T11:00:44.591Z,23.20
2022-09-17T11:03:44.044Z,6.68
2022-09-17T11:06:25.858Z,3.97
2022-09-17T11:09:14.160Z,6.80
2022-09-17T11:12:14.876Z,4.05
2022-09-17T11:15:10.955Z,4.18
2022-09-17T11:17:53.213Z,5.85
2022-09-17T11:23:40.286Z,5.00
2022-09-17T11:26:45.531Z,5.05
2022-09-17T11:29:35.526Z,10.80
2022-09-17T11:32:39.695Z,7.55
2022-09-17T11:35:16.163Z,9.35
2022-09-17T11:37:51.592Z,6.10
2022-09-17T11:40:37.333Z,4.43
2022-09-17T11:43:29.378Z,2.78
2022-09-17T11:46:18.388Z,10.65
2022-09-17T11:48:54.894Z,3.45
2022-09-17T11:51:38.570Z,6.35
2022-09-17T11:54:34.031Z,7.32
2022-09-17T11:57:11.279Z,9.32
2022-09-17T11:59:56.306Z,7.93
2022-09-17T12:02:48.202Z,6.35
2022-09-17T12:05:38.051Z,6.63
2022-09-17T12:08:15.090Z,7.47
2022-09-17T12:10:46.170Z,10.98
2022-09-17T12:13:26.862Z,6.97
2022-09-17T12:16:20.395Z,8.15
2022-09-17T12:19:17.489Z,11.30
2022-09-17T12:21:51.594Z,8.40
2022-09-17T12:24:28.831Z,12.93
2022-09-17T12:27:33.145Z,10.93
2022-09-17T12:30:17.227Z,6.20
2022-09-17T12:33:04.970Z,6.70
2022-09-17T12:36:06.149Z,8.65
2022-09-17T12:39:03.291Z,6.80
2022-09-17T12:41:49.257Z,11.88
2022-09-17T12:44:41.706Z,8.65
2022-09-17T12:47:35.575Z,14.05
2022-09-17T12:50:08.620Z,7.93
2022-09-17T12:52:57.580Z,13.77
2022-09-17T12:55:36.402Z,5.90
2022-09-17T12:58:27.880Z,10.48
2022-09-17T13:01:18.221Z,7.22
2022-09-17T13:04:43.577Z,8.43
2022-09-17T13:07:31.726Z,15.35
2022-09-17T13:10:30.768Z,13.48
2022-09-17T13:13:09.567Z,9.52
2022-09-17T13:15:57.269Z,9.00
2022-09-17T13:18:59.481Z,7.10
2022-09-17T13:21:41.434Z,13.98
2022-09-17T13:24:21.680Z,15.85
2022-09-17T13:26:49.771Z,15.25
2022-09-17T13:29:46.122Z,15.30
2022-09-17T13:32:39.749Z,11.18
2022-09-17T13:35:09.764Z,12.93
2022-09-17T13:37:54.388Z,9.85
2022-09-17T13:40:35.163Z,13.23
2022-09-17T13:43:12.288Z,10.70
2022-09-17T13:46:01.095Z,11.05
2022-09-17T13:48:31.778Z,8.60
2022-09-17T13:51:30.328Z,7.50
2022-09-17T13:54:00.578Z,6.47
2022-09-17T13:56:45.347Z,6.35
2022-09-17T13:59:25.500Z,6.43
2022-09-17T14:02:28.663Z,7.45
2022-09-17T14:05:26.356Z,6.30
2022-09-17T14:08:13.101Z,4.28
2022-09-17T14:10:44.874Z,6.70
2022-09-17T14:13:45.405Z,4.63
2022-09-17T14:16:42.585Z,5.72
2022-09-17T14:19:39.786Z,6.38
2022-09-17T14:22:22.206Z,4.38
2022-09-17T14:24:52.567Z,6.35
2022-09-17T14:27:42.219Z,5.40
2022-09-17T14:30:22.596Z,8.18
2022-09-17T14:32:57.731Z,10.05
2022-09-17T14:35:41.172Z,9.75
2022-09-17T14:38:14.021Z,8.00
2022-09-17T14:40:46.287Z,4.93
2022-09-17T14:43:48.449Z,3.70
2022-09-17T14:46:22.083Z,8.68
2022-09-17T14:48:50.689Z,3.83
2022-09-17T14:51:17.493Z,2.83
2022-09-17T14:53:48.318Z,5.00
2022-09-17T14:56:22.395Z,6.85
2022-09-17T14:58:52.799Z,3.72
2022-09-17T15:01:25.023Z,8.13
2022-09-17T15:04:21.345Z,4.93
2022-09-17T15:06:48.316Z,7.40
2022-09-17T15:09:23.908Z,4.70
2022-09-17T15:11:55.641Z,7.55
2022-09-17T15:14:31.881Z,3.58
2022-09-17T15:17:02.979Z,11.13
2022-09-17T15:19:33.574Z,2.40
2022-09-17T15:22:18.321Z,4.38
2022-09-17T15:24:56.525Z,6.75
2022-09-17T15:27:39.145Z,13.23
2022-09-17T15:30:18.108Z,5.57
2022-09-17T15:32:56.744Z,7.97
2022-09-17T15:35:30.288Z,8.90
2022-09-17T15:38:24.430Z,10.43
2022-09-17T15:40:51.829Z,7.50
2022-09-17T15:43:31.696Z,6.43
2022-09-17T15:46:26.868Z,7.43
2022-09-17T15:49:38.114Z,7.30
2022-09-17T15:52:31.728Z,5.15
2022-09-17T15:55:00.247Z,7.70
2022-09-17T15:57:30.326Z,8.32
2022-09-17T16:00:08.806Z,6.70
2022-09-17T16:02:35.843Z,4.25
2022-09-17T16:05:17.819Z,11.55
2022-09-17T16:07:48.072Z,6.75
2022-09-17T16:10:16.142Z,5.97
2022-09-17T16:12:43.987Z,13.13
2022-09-17T16:15:13.045Z,6.55
2022-09-17T16:17:57.928Z,6.18
2022-09-17T16:20:25.922Z,11.23
2022-09-17T16:22:54.918Z,4.80
2022-09-17T16:25:28.413Z,3.38
2022-09-17T16:28:02.254Z,8.68
2022-09-17T16:30:29.364Z,4.70
2022-09-17T16:32:56.253Z,4.05
2022-09-17T16:35:25.806Z,6.38
2022-09-17T16:37:55.092Z,4.88
2022-09-17T16:40:24.123Z,4.10
2022-09-17T16:42:51.269Z,6.35
2022-09-17T16:45:18.091Z,8.45
2022-09-17T16:47:45.253Z,5.40
2022-09-17T16:50:15.408Z,8.43
2022-09-17T16:52:42.884Z,5.78
2022-09-17T16:55:10.458Z,4.93
2022-09-17T16:57:37.365Z,8.02
2022-09-17T17:00:06.472Z,4.47
2022-09-17T17:02:33.436Z,9.15
2022-09-17T17:05:00.356Z,4.97
2022-09-17T17:07:27.213Z,7.13
2022-09-17T17:09:54.075Z,6.95
2022-09-17T17:12:21.038Z,7.22
2022-09-17T17:14:50.172Z,8.32
2022-09-17T17:17:18.532Z,6.57
2022-09-17T17:19:46.648Z,9.63
2022-09-17T17:22:15.037Z,5.10
2022-09-17T17:24:42.629Z,6.75
2022-09-17T17:27:09.812Z,5.80
2022-09-17T17:29:37.171Z,10.57
2022-09-17T17:32:05.324Z,9.48
2022-09-17T17:34:32.415Z,5.18
2022-09-17T17:36:59.526Z,4.93
2022-09-17T17:39:26.683Z,5.75
2022-09-17T17:41:55.827Z,7.22
2022-09-17T17:44:22.792Z,5.72
2022-09-17T17:46:49.713Z,9.20
2022-09-17T17:49:17.050Z,9.77
2022-09-17T17:51:45.045Z,11.65
2022-09-17T17:54:11.876Z,12.57
2022-09-17T17:56:38.693Z,7.78
2022-09-17T17:59:06.359Z,10.75
2022-09-17T18:01:35.378Z,12.02
2022-09-17T18:04:05.515Z,10.77
2022-09-17T18:06:32.991Z,6.68
2022-09-17T18:09:01.592Z,8.25
2022-09-17T18:11:28.925Z,13.07
2022-09-17T18:13:56.868Z,6.32
2022-09-17T18:16:24.625Z,10.07
2022-09-17T18:18:51.547Z,11.88
2022-09-17T18:21:21.580Z,9.20
2022-09-17T18:23:49.241Z,11.95
2022-09-17T18:26:22.967Z,13.27
2022-09-17T18:28:51.163Z,13.82
2022-09-17T18:31:22.929Z,12.18
2022-09-17T18:33:58.835Z,8.48
2022-09-17T18:36:29.444Z,17.98
2022-09-17T18:39:16.689Z,16.80
2022-09-17T18:41:48.436Z,12.55
2022-09-17T18:44:15.510Z,12.68
2022-09-17T18:46:42.771Z,10.43
2022-09-17T18:49:09.790Z,13.52
2022-09-17T18:51:37.911Z,13.18
2022-09-17T18:54:04.929Z,10.02
2022-09-17T18:56:36.147Z,10.05
2022-09-17T18:59:07.983Z,12.40
2022-09-17T19:04:03.252Z,8.23
2022-09-17T19:06:32.510Z,12.82
2022-09-17T19:09:05.417Z,13.07
2022-09-17T19:11:34.235Z,11.13
2022-09-17T19:14:01.847Z,14.88
2022-09-17T19:16:30.676Z,12.70
2022-09-17T19:18:58.355Z,11.40
2022-09-17T19:21:25.259Z,12.82
2022-09-17T19:23:52.692Z,11.10
2022-09-17T19:26:25.433Z,8.88
2022-09-17T19:28:57.907Z,15.63
2022-09-17T19:31:25.402Z,10.80
2022-09-17T19:33:52.856Z,14.00
2022-09-17T19:36:20.419Z,13.82
2022-09-17T19:38:48.143Z,13.98
2022-09-17T19:41:17.562Z,15.10
2022-09-17T19:43:47.933Z,12.00
2022-09-17T19:46:18.116Z,10.00
2022-09-17T19:48:50.508Z,11.70
2022-09-17T19:51:18.996Z,11.77
2022-09-17T19:53:46.288Z,8.43
2022-09-17T19:56:15.936Z,12.85
2022-09-17T19:58:43.521Z,9.20
2022-09-17T20:01:11.512Z,10.60
2022-09-17T20:03:39.277Z,10.25
2022-09-17T20:06:09.629Z,12.20
2022-09-17T20:08:41.608Z,10.60
2022-09-17T20:11:12.218Z,9.48
2022-09-17T20:13:39.231Z,7.35
2022-09-17T20:16:13.856Z,12.75
2022-09-17T20:18:41.315Z,11.38
2022-09-17T20:21:09.533Z,10.23
2022-09-17T20:23:36.487Z,15.00
2022-09-17T20:26:04.860Z,14.45
2022-09-17T20:28:32.408Z,10.82
2022-09-17T20:31:08.845Z,14.18
2022-09-17T20:33:35.824Z,13.02
2022-09-17T20:36:05.603Z,11.40
2022-09-17T20:39:10.143Z,9.85
2022-09-17T20:41:21.364Z,12.15
2022-09-17T20:43:50.609Z,12.55
2022-09-17T20:46:18.705Z,11.15
2022-09-17T20:48:45.837Z,8.15
2022-09-17T20:51:18.270Z,9.93
2022-09-17T20:53:46.223Z,11.30
2022-09-17T20:56:15.936Z,8.98
2022-09-17T20:58:48.481Z,9.15
2022-09-17T21:01:20.603Z,9.48
2022-09-17T21:06:24.039Z,8.65
2022-09-17T21:08:52.251Z,12.13
2022-09-17T21:11:21.469Z,11.48
2022-09-17T21:13:48.400Z,13.68
2022-09-17T21:16:16.161Z,10.27
2022-09-17T21:18:43.716Z,9.95
2022-09-17T21:21:16.607Z,11.65
2022-09-17T21:23:44.006Z,12.35
2022-09-17T21:26:14.785Z,9.23
2022-09-17T21:28:43.783Z,13.60
2022-09-17T21:31:13.757Z,9.80
2022-09-17T21:33:41.865Z,8.45
2022-09-17T21:36:14.305Z,12.65
2022-09-17T21:38:41.755Z,6.63
2022-09-17T21:41:13.951Z,13.10
2022-09-17T21:43:41.966Z,14.65
2022-09-17T21:46:21.529Z,15.95
2022-09-17T21:48:50.887Z,12.18
2022-09-17T21:51:23.580Z,10.55
2022-09-17T21:53:52.322Z,24.25
2022-09-17T21:56:20.143Z,6.70
2022-09-17T21:58:51.407Z,10.40
2022-09-17T22:01:20.698Z,7.63
2022-09-17T22:03:48.073Z,12.43
2022-09-17T22:06:18.615Z,6.75
2022-09-17T22:08:46.502Z,8.63
2022-09-17T22:11:22.178Z,11.13
2022-09-17T22:13:55.330Z,8.80
2022-09-17T22:16:24.132Z,10.55
2022-09-17T22:18:52.108Z,10.90
2022-09-17T22:21:24.693Z,7.45
2022-09-17T22:23:53.746Z,11.55
2022-09-17T22:26:22.763Z,8.68
2022-09-17T22:28:50.427Z,7.20
2022-09-17T22:31:18.440Z,7.53
2022-09-17T22:33:47.695Z,14.02
2022-09-17T22:36:17.745Z,10.07
2022-09-17T22:38:50.557Z,9.07
2022-09-17T22:41:19.652Z,11.48
2022-09-17T22:43:47.144Z,11.23
2022-09-17T22:46:19.523Z,11.02
2022-09-17T22:48:47.232Z,12.25
2022-09-17T22:51:14.993Z,7.32
2022-09-17T22:53:43.142Z,14.98
2022-09-17T22:56:13.438Z,7.53
2022-09-17T22:58:40.609Z,9.63
2022-09-17T23:01:11.330Z,8.68
2022-09-17T23:03:38.991Z,10.07
2022-09-17T23:06:08.836Z,9.40
2022-09-17T23:08:36.553Z,10.35
2022-09-17T23:11:05.220Z,10.30
2022-09-17T23:13:32.734Z,14.90
2022-09-17T23:16:08.107Z,7.07
2022-09-17T23:18:36.089Z,7.88
2022-09-17T23:21:09.391Z,7.68
2022-09-17T23:23:37.428Z,15.30
2022-09-17T23:26:06.636Z,12.25
2022-09-17T23:28:35.129Z,7.57
2022-09-17T23:31:21.795Z,7.95
2022-09-17T23:33:49.595Z,11.18
2022-09-17T23:36:20.093Z,17.10
2022-09-17T23:38:48.404Z,12.68
2022-09-17T23:41:25.847Z,8.00
2022-09-17T23:43:58.081Z,13.90
2022-09-17T23:46:26.517Z,15.55
2022-09-17T23:48:53.714Z,10.20
2022-09-17T23:51:22.273Z,14.45
2022-09-17T23:53:49.346Z,8.65
2022-09-17T23:56:23.943Z,13.00
2022-09-17T23:58:52.156Z,12.60
